Time;durP1;ratioP1;P1;durP2;ratioP2;P2;SDS_P1;SDS_P2;PMS_P1;PMS_P2;Temp;Humidity;BMP_temperature;BMP_pressure;BME280_temperature;BME280_humidity;BME280_pressure;Samples;Min_cycle;Max_cycle;Signal;HPM_P1;HPM_P2
2023/05/13 00:00:52;;;;;;;;;;;;;;;10.09;63.77;94966.25;4220201;28;19920;-60
2023/05/13 00:02:54;;;;;;;;;;;;;;;10.10;63.77;94973.09;4219599;28;20416;-60
2023/05/13 00:04:55;;;;;;;;;;;;;;;10.19;64.05;94987.91;4225966;28;19920;-60
2023/05/13 00:06:57;;;;;;;;;;;;;;;10.27;64.80;95002.06;4212458;28;19954;-58
2023/05/13 00:08:59;;;;;;;;;;;;;;;10.29;62.86;95010.59;4214756;28;19927;-59
2023/05/13 00:11:00;;;;;;;;;;;;;;;10.33;62.51;95018.03;4214967;28;19920;-58
2023/05/13 00:13:02;;;;;;;;;;;;;;;10.44;62.65;95024.84;4214423;28;19981;-58
2023/05/13 00:15:04;;;;;;;;;;;;;;;10.52;62.18;95024.91;4213206;28;19967;-59
2023/05/13 00:17:05;;;;;;;;;;;;;;;10.54;60.94;95024.75;4213019;27;19927;-58
2023/05/13 00:19:06;;;;;;;;;;;;;;;10.39;61.36;95019.22;4220669;28;19963;-59
2023/05/13 00:21:08;;;;;;;;;;;;;;;10.40;61.73;95024.31;4212060;28;20405;-58
2023/05/13 00:23:10;;;;;;;;;;;;;;;10.41;61.83;95025.97;4212517;28;19927;-60
2023/05/13 00:25:12;;;;;;;;;;;;;;;10.33;62.69;95025.06;4214427;28;19927;-57
2023/05/13 00:27:13;;;;;;;;;;;;;;;10.36;63.33;95032.63;4217789;28;20036;-59
2023/05/13 00:29:14;;;;;;;;;;;;;;;10.42;63.49;95024.97;4219864;28;19966;-58
2023/05/13 00:31:16;;;;;;;;;;;;;;;10.50;63.52;95034.72;4213674;28;19920;-59
2023/05/13 00:33:18;;;;;;;;;;;;;;;10.60;63.84;95038.09;4220829;28;19920;-61
2023/05/13 00:35:19;;;;;;;;;;;;;;;10.66;64.13;95029.59;4224718;28;19920;-59
2023/05/13 00:37:21;;;;;;;;;;;;;;;10.70;64.48;95037.19;4216045;28;20394;-60
2023/05/13 00:39:23;;;;;;;;;;;;;;;10.65;64.90;95033.22;4219910;28;19932;-61
2023/05/13 00:41:25;;;;;;;;;;;;;;;10.61;65.45;95037.09;4220344;28;19931;-59
2023/05/13 00:43:26;;;;;;;;;;;;;;;10.41;66.43;95031.22;4220000;28;19920;-60
2023/05/13 00:45:27;;;;;;;;;;;;;;;10.29;66.99;95034.16;4220518;28;19927;-60
2023/05/13 00:47:29;;;;;;;;;;;;;;;10.28;67.48;95035.94;4221677;28;19920;-59
2023/05/13 00:49:34;;;;;;;;;;;;;;;10.23;67.74;95033.78;4221889;28;20446;-62
2023/05/13 00:51:35;;;;;;;;;;;;;;;10.32;67.53;95033.88;4223602;28;20044;-59
2023/05/13 00:53:37;;;;;;;;;;;;;;;10.41;67.45;95030.38;4224137;28;19962;-59
2023/05/13 00:55:42;;;;;;;;;;;;;;;10.50;67.20;95026.06;4227650;28;20018;-61
2023/05/13 00:57:43;;;;;;;;;;;;;;;10.58;67.60;95021.69;4227044;27;19920;-60
2023/05/13 00:59:45;;;;;;;;;;;;;;;10.62;67.07;95016.97;4223473;28;20019;-60
2023/05/13 01:02:06;;;;;;;;;;;;;;;10.68;67.12;95018.16;4225144;28;20309;-59
2023/05/13 01:04:12;;;;;;;;;;;;;;;10.70;67.20;95018.84;4220279;27;20411;-62
2023/05/13 01:06:27;;;;;;;;;;;;;;;10.74;66.74;95025.44;4216935;28;19924;-59
2023/05/13 01:08:38;;;;;;;;;;;;;;;10.75;67.63;95024.44;4205511;28;19927;-59
2023/05/13 01:10:45;;;;;;;;;;;;;;;10.76;67.69;95036.56;4218379;28;19947;-60
2023/05/13 01:12:46;;;;;;;;;;;;;;;10.78;67.41;95042.50;4220410;28;19919;-59
2023/05/13 01:14:51;;;;;;;;;;;;;;;10.77;67.72;95052.13;4217538;28;19920;-57
2023/05/13 01:16:58;;;;;;;;;;;;;;;10.78;67.95;95052.97;4205395;28;19974;-60
2023/05/13 01:19:01;;;;;;;;;;;;;;;10.79;68.21;95054.59;4220731;28;19970;-61
2023/05/13 01:21:03;;;;;;;;;;;;;;;10.77;68.09;95054.75;4222977;28;20086;-59
2023/05/13 01:23:05;;;;;;;;;;;;;;;10.80;68.04;95059.69;4216145;28;20005;-61
2023/05/13 01:25:07;;;;;;;;;;;;;;;10.85;67.85;95065.31;4226829;28;20434;-59
2023/05/13 01:27:09;;;;;;;;;;;;;;;10.91;68.47;95068.31;4220664;28;20273;-59
2023/05/13 01:29:10;;;;;;;;;;;;;;;10.92;68.38;95073.38;4218640;28;19932;-61
2023/05/13 01:31:12;;;;;;;;;;;;;;;10.95;67.96;95080.97;4209667;28;20317;-61
2023/05/13 01:33:14;;;;;;;;;;;;;;;10.97;68.10;95078.16;4217762;28;19946;-59
2023/05/13 01:35:15;;;;;;;;;;;;;;;10.97;67.54;95073.75;4227560;28;20356;-59
2023/05/13 01:37:17;;;;;;;;;;;;;;;10.95;66.51;95075.72;4225981;28;20003;-60
2023/05/13 01:39:19;;;;;;;;;;;;;;;10.85;65.92;95077.59;4224496;28;19920;-59
2023/05/13 01:41:20;;;;;;;;;;;;;;;10.84;66.26;95068.06;4211998;28;19970;-60
2023/05/13 01:43:22;;;;;;;;;;;;;;;10.85;65.93;95064.50;4216422;28;20282;-60
2023/05/13 01:45:24;;;;;;;;;;;;;;;10.89;65.62;95067.63;4217108;28;19924;-60
2023/05/13 01:47:25;;;;;;;;;;;;;;;10.88;65.48;95068.59;4218200;28;20030;-59
2023/05/13 01:49:27;;;;;;;;;;;;;;;10.87;65.47;95062.53;4211553;28;19924;-57
2023/05/13 01:51:28;;;;;;;;;;;;;;;10.88;66.25;95071.22;4218176;28;20404;-57
2023/05/13 01:53:30;;;;;;;;;;;;;;;10.89;67.25;95075.50;4228116;28;20010;-57
2023/05/13 01:55:32;;;;;;;;;;;;;;;10.94;67.69;95071.44;4217500;28;19920;-59
2023/05/13 01:57:33;;;;;;;;;;;;;;;10.98;66.71;95064.09;4212753;28;20293;-61
2023/05/13 01:59:35;;;;;;;;;;;;;;;10.97;65.97;95052.78;4216360;28;19962;-60
2023/05/13 02:01:36;;;;;;;;;;;;;;;10.98;65.67;95053.59;4224915;28;19920;-60
2023/05/13 02:03:37;;;;;;;;;;;;;;;10.70;66.17;95058.13;4223992;28;20285;-60
2023/05/13 02:05:39;;;;;;;;;;;;;;;10.60;67.23;95066.91;4219759;28;19924;-59
2023/05/13 02:07:41;;;;;;;;;;;;;;;10.62;67.74;95071.97;4218422;28;20030;-58
2023/05/13 02:09:42;;;;;;;;;;;;;;;10.33;66.90;95066.97;4216785;28;19926;-59
2023/05/13 02:11:44;;;;;;;;;;;;;;;10.11;66.92;95055.91;4222586;28;19954;-58
2023/05/13 02:13:47;;;;;;;;;;;;;;;10.03;67.81;95058.44;4220520;28;19927;-61
2023/05/13 02:15:48;;;;;;;;;;;;;;;9.98;68.77;95061.50;4221746;28;19924;-60
2023/05/13 02:17:50;;;;;;;;;;;;;;;10.07;69.11;95064.19;4214725;28;19943;-60
2023/05/13 02:19:51;;;;;;;;;;;;;;;10.14;68.90;95068.69;4215613;28;20273;-60
2023/05/13 02:21:53;;;;;;;;;;;;;;;10.13;67.31;95059.22;4213378;28;19966;-60
2023/05/13 02:23:54;;;;;;;;;;;;;;;10.21;67.83;95067.13;4214236;28;20417;-61
2023/05/13 02:25:56;;;;;;;;;;;;;;;10.32;67.52;95068.75;4216728;28;20001;-60
2023/05/13 02:27:58;;;;;;;;;;;;;;;10.43;66.93;95065.09;4213540;28;19920;-58
2023/05/13 02:30:00;;;;;;;;;;;;;;;10.51;65.88;95067.78;4214069;28;19963;-60
2023/05/13 02:32:01;;;;;;;;;;;;;;;10.57;66.42;95063.75;4212117;28;19946;-58
2023/05/13 02:34:02;;;;;;;;;;;;;;;10.57;65.52;95069.81;4219732;28;19926;-60
2023/05/13 02:36:04;;;;;;;;;;;;;;;10.59;66.38;95070.50;4222367;28;20289;-58
2023/05/13 02:38:08;;;;;;;;;;;;;;;10.64;66.71;95067.41;4225283;28;20290;-61
2023/05/13 02:40:09;;;;;;;;;;;;;;;10.73;66.75;95073.53;4226890;28;19962;-61
2023/05/13 02:42:11;;;;;;;;;;;;;;;10.78;66.28;95063.47;4227119;28;19959;-58
2023/05/13 02:44:12;;;;;;;;;;;;;;;10.78;65.31;95066.06;4226591;28;19974;-59
2023/05/13 02:46:14;;;;;;;;;;;;;;;10.66;66.72;95081.19;4211981;28;20016;-60
2023/05/13 02:48:16;;;;;;;;;;;;;;;10.65;66.78;95079.56;4220472;28;20015;-61
2023/05/13 02:50:17;;;;;;;;;;;;;;;10.64;66.55;95080.50;4220320;28;19923;-60
2023/05/13 02:52:19;;;;;;;;;;;;;;;10.58;66.70;95081.97;4227605;28;19978;-60
2023/05/13 02:54:21;;;;;;;;;;;;;;;10.58;66.47;95079.34;4228122;28;19920;-59
2023/05/13 02:56:22;;;;;;;;;;;;;;;10.61;65.87;95088.69;4221887;28;20357;-60
2023/05/13 02:58:24;;;;;;;;;;;;;;;10.66;65.92;95089.06;4207852;28;19920;-58
2023/05/13 03:00:25;;;;;;;;;;;;;;;10.76;65.84;95099.47;4225734;28;19920;-60
2023/05/13 03:02:27;;;;;;;;;;;;;;;10.81;65.77;95103.25;4230489;28;19966;-60
2023/05/13 03:04:28;;;;;;;;;;;;;;;10.85;65.74;95096.75;4222647;28;19927;-58
2023/05/13 03:06:30;;;;;;;;;;;;;;;10.82;65.39;95099.69;4213138;28;20274;-60
2023/05/13 03:08:32;;;;;;;;;;;;;;;10.79;65.68;95104.41;4216697;28;19943;-58
2023/05/13 03:10:34;;;;;;;;;;;;;;;10.80;66.27;95106.06;4226190;28;20389;-57
2023/05/13 03:12:35;;;;;;;;;;;;;;;10.80;65.67;95104.25;4227712;28;19930;-59
2023/05/13 03:14:37;;;;;;;;;;;;;;;10.68;65.17;95102.81;4218630;27;19920;-59
2023/05/13 03:16:38;;;;;;;;;;;;;;;10.25;66.07;95102.53;4215881;28;19926;-60
2023/05/13 03:18:40;;;;;;;;;;;;;;;10.07;67.13;95109.53;4215096;28;20385;-59
2023/05/13 03:20:41;;;;;;;;;;;;;;;9.57;67.82;95102.00;4215643;28;19920;-59
2023/05/13 03:22:43;;;;;;;;;;;;;;;9.26;69.02;95104.03;4214920;28;19962;-60
2023/05/13 03:24:44;;;;;;;;;;;;;;;9.02;68.98;95106.13;4217198;28;19924;-60
2023/05/13 03:26:46;;;;;;;;;;;;;;;9.10;70.22;95100.22;4211101;28;20259;-60
2023/05/13 03:28:47;;;;;;;;;;;;;;;9.21;68.94;95100.06;4215867;28;20041;-59
2023/05/13 03:30:49;;;;;;;;;;;;;;;9.29;69.08;95107.22;4215483;28;19920;-59
2023/05/13 03:32:51;;;;;;;;;;;;;;;9.38;68.98;95111.59;4216031;28;19934;-59
2023/05/13 03:34:53;;;;;;;;;;;;;;;9.54;68.43;95110.16;4228223;28;19923;-60
2023/05/13 03:36:54;;;;;;;;;;;;;;;9.66;69.93;95116.88;4220089;28;20022;-59
2023/05/13 03:38:56;;;;;;;;;;;;;;;9.68;68.68;95119.31;4221743;28;20414;-61
2023/05/13 03:40:57;;;;;;;;;;;;;;;9.64;66.82;95121.41;4222194;27;19919;-59
2023/05/13 03:42:59;;;;;;;;;;;;;;;9.61;67.08;95126.91;4213188;28;19920;-59
2023/05/13 03:45:00;;;;;;;;;;;;;;;9.69;68.07;95124.41;4218593;28;19920;-60
2023/05/13 03:47:02;;;;;;;;;;;;;;;9.78;66.93;95117.50;4228767;28;20377;-60
2023/05/13 03:49:03;;;;;;;;;;;;;;;9.92;66.74;95117.03;4227538;28;19919;-60
2023/05/13 03:51:05;;;;;;;;;;;;;;;10.08;68.17;95121.63;4224583;28;20150;-58
2023/05/13 03:53:07;;;;;;;;;;;;;;;10.18;67.12;95122.41;4218830;28;19962;-62
2023/05/13 03:55:08;;;;;;;;;;;;;;;10.27;66.64;95127.75;4213031;28;20312;-59
2023/05/13 03:57:09;;;;;;;;;;;;;;;10.12;66.18;95140.50;4224324;28;19954;-59
2023/05/13 03:59:11;;;;;;;;;;;;;;;10.05;65.76;95145.50;4229364;28;19927;-61
2023/05/13 04:01:12;;;;;;;;;;;;;;;9.96;65.84;95149.81;4226759;28;19926;-62
2023/05/13 04:03:18;;;;;;;;;;;;;;;10.06;66.62;95141.91;4214368;28;19920;-63
2023/05/13 04:05:20;;;;;;;;;;;;;;;10.17;66.92;95146.94;4215617;28;19920;-59
2023/05/13 04:07:21;;;;;;;;;;;;;;;10.27;66.56;95149.53;4213384;28;19923;-60
2023/05/13 04:09:23;;;;;;;;;;;;;;;10.33;65.41;95154.22;4221144;28;19920;-61
2023/05/13 04:11:24;;;;;;;;;;;;;;;10.45;64.97;95157.44;4216511;28;20578;-64
2023/05/13 04:13:26;;;;;;;;;;;;;;;10.52;64.83;95150.66;4215417;28;20389;-59
2023/05/13 04:15:27;;;;;;;;;;;;;;;10.49;64.56;95152.75;4222997;27;19937;-61
2023/05/13 04:17:29;;;;;;;;;;;;;;;10.50;64.98;95160.47;4222685;28;19920;-61
2023/05/13 04:19:31;;;;;;;;;;;;;;;10.60;64.54;95157.75;4214347;28;20358;-61
2023/05/13 04:21:32;;;;;;;;;;;;;;;10.65;63.99;95156.34;4214738;28;19969;-60
2023/05/13 04:23:34;;;;;;;;;;;;;;;10.72;64.13;95155.75;4214678;28;20011;-62
2023/05/13 04:25:38;;;;;;;;;;;;;;;10.79;63.70;95152.38;4212916;28;20122;-62
2023/05/13 04:27:40;;;;;;;;;;;;;;;10.62;62.20;95155.81;4219685;28;19920;-62
2023/05/13 04:29:41;;;;;;;;;;;;;;;10.39;62.64;95155.41;4214061;28;19981;-60
2023/05/13 04:31:43;;;;;;;;;;;;;;;9.86;63.87;95167.34;4211143;28;19924;-61
2023/05/13 04:33:45;;;;;;;;;;;;;;;9.58;65.12;95166.44;4221065;28;20412;-62
2023/05/13 04:35:46;;;;;;;;;;;;;;;9.38;65.66;95176.94;4205175;28;19920;-63
2023/05/13 04:37:48;;;;;;;;;;;;;;;9.19;67.31;95179.59;4216270;28;20023;-61
2023/05/13 04:39:50;;;;;;;;;;;;;;;9.12;68.04;95178.47;4216913;28;20042;-61
2023/05/13 04:41:51;;;;;;;;;;;;;;;9.26;67.74;95187.69;4213154;28;19969;-60
2023/05/13 04:43:53;;;;;;;;;;;;;;;9.04;67.28;95180.97;4211983;28;19924;-61
2023/05/13 04:45:54;;;;;;;;;;;;;;;9.31;68.50;95183.69;4220027;28;20321;-58
2023/05/13 04:47:56;;;;;;;;;;;;;;;9.64;68.17;95176.34;4221904;28;19927;-59
2023/05/13 04:49:58;;;;;;;;;;;;;;;9.93;66.83;95178.88;4223358;28;20433;-58
2023/05/13 04:52:01;;;;;;;;;;;;;;;10.20;65.86;95178.09;4223963;28;19985;-61
2023/05/13 04:54:02;;;;;;;;;;;;;;;10.44;65.10;95177.56;4222432;28;19929;-61
2023/05/13 04:56:04;;;;;;;;;;;;;;;10.61;64.50;95170.72;4217306;28;19959;-62
2023/05/13 04:58:05;;;;;;;;;;;;;;;10.74;63.82;95169.53;4216994;28;20422;-61
2023/05/13 05:00:08;;;;;;;;;;;;;;;10.86;61.68;95161.31;4222758;28;20396;-61
2023/05/13 05:02:09;;;;;;;;;;;;;;;11.04;61.49;95158.69;4222981;28;19964;-61
2023/05/13 05:04:11;;;;;;;;;;;;;;;11.16;60.09;95164.50;4212537;28;19920;-60
2023/05/13 05:06:13;;;;;;;;;;;;;;;11.24;59.62;95158.53;4223021;28;19920;-61
2023/05/13 05:08:14;;;;;;;;;;;;;;;11.35;59.52;95158.28;4214295;28;19970;-60
2023/05/13 05:10:16;;;;;;;;;;;;;;;11.42;59.80;95159.31;4217793;28;20006;-60
2023/05/13 05:12:17;;;;;;;;;;;;;;;11.46;60.27;95165.06;4217401;28;20010;-60
2023/05/13 05:14:19;;;;;;;;;;;;;;;11.48;60.53;95171.81;4216852;28;19973;-60
2023/05/13 05:16:21;;;;;;;;;;;;;;;11.47;60.45;95171.97;4212801;28;19920;-60
2023/05/13 05:18:22;;;;;;;;;;;;;;;11.47;60.54;95167.56;4214592;28;20044;-60
2023/05/13 05:20:24;;;;;;;;;;;;;;;11.54;60.42;95170.38;4213745;28;20176;-58
2023/05/13 05:22:26;;;;;;;;;;;;;;;11.63;60.00;95168.63;4211194;28;20148;-62
2023/05/13 05:24:27;;;;;;;;;;;;;;;11.71;59.57;95171.31;4213672;28;19931;-61
2023/05/13 05:26:28;;;;;;;;;;;;;;;11.80;59.50;95175.63;4214738;28;20279;-63
2023/05/13 05:28:30;;;;;;;;;;;;;;;11.86;59.45;95169.78;4213597;28;19969;-61
2023/05/13 05:30:38;;;;;;;;;;;;;;;11.88;59.10;95170.47;4212877;28;19939;-60
2023/05/13 05:32:40;;;;;;;;;;;;;;;11.93;58.72;95175.25;4214258;28;20363;-62
2023/05/13 05:34:41;;;;;;;;;;;;;;;11.94;59.23;95168.19;4226656;28;19919;-59
2023/05/13 05:36:43;;;;;;;;;;;;;;;11.94;58.21;95165.56;4212113;28;19923;-59
2023/05/13 05:38:44;;;;;;;;;;;;;;;11.97;58.24;95173.16;4227813;28;19939;-60
2023/05/13 05:40:46;;;;;;;;;;;;;;;12.01;58.46;95177.13;4227580;28;20396;-57
2023/05/13 05:42:47;;;;;;;;;;;;;;;11.97;56.74;95167.91;4213071;28;19930;-62
2023/05/13 05:44:49;;;;;;;;;;;;;;;11.97;57.52;95173.97;4211133;28;19926;-60
2023/05/13 05:46:51;;;;;;;;;;;;;;;12.05;57.87;95179.25;4212427;28;19985;-59
2023/05/13 05:48:53;;;;;;;;;;;;;;;12.08;58.18;95172.88;4211619;28;19920;-59
2023/05/13 05:50:55;;;;;;;;;;;;;;;12.09;58.09;95174.53;4212184;28;20427;-62
2023/05/13 05:52:58;;;;;;;;;;;;;;;12.09;57.94;95179.78;4216366;28;20010;-61
2023/05/13 05:54:59;;;;;;;;;;;;;;;12.13;57.55;95178.50;4215322;28;20001;-62
2023/05/13 05:57:01;;;;;;;;;;;;;;;12.13;57.70;95185.53;4208475;28;19932;-63
2023/05/13 05:59:02;;;;;;;;;;;;;;;12.14;58.05;95180.13;4211967;28;20349;-62
2023/05/13 06:01:04;;;;;;;;;;;;;;;12.13;57.52;95181.13;4210948;28;19920;-62
2023/05/13 06:03:05;;;;;;;;;;;;;;;12.14;57.43;95189.81;4220187;28;19950;-62
2023/05/13 06:05:07;;;;;;;;;;;;;;;12.11;56.94;95185.72;4212052;28;19984;-61
2023/05/13 06:07:09;;;;;;;;;;;;;;;12.16;57.16;95187.88;4212222;28;20006;-58
2023/05/13 06:09:10;;;;;;;;;;;;;;;11.99;57.29;95185.13;4221504;28;19937;-61
2023/05/13 06:11:12;;;;;;;;;;;;;;;11.64;57.98;95186.88;4211991;28;19959;-58
2023/05/13 06:13:13;;;;;;;;;;;;;;;11.41;59.69;95181.28;4225050;28;20354;-61
2023/05/13 06:15:15;;;;;;;;;;;;;;;11.58;60.56;95194.53;4214557;28;20358;-61
2023/05/13 06:17:16;;;;;;;;;;;;;;;11.74;59.55;95188.56;4220722;28;19924;-61
2023/05/13 06:19:18;;;;;;;;;;;;;;;11.88;58.27;95193.28;4221362;28;19923;-61
2023/05/13 06:21:19;;;;;;;;;;;;;;;12.04;57.59;95187.28;4224570;28;19963;-60
2023/05/13 06:23:21;;;;;;;;;;;;;;;12.11;57.80;95193.59;4211594;28;19920;-63
2023/05/13 06:25:22;;;;;;;;;;;;;;;12.20;57.63;95187.38;4217337;28;20350;-58
2023/05/13 06:27:24;;;;;;;;;;;;;;;12.22;58.01;95195.13;4216349;28;19920;-61
2023/05/13 06:29:26;;;;;;;;;;;;;;;12.19;57.33;95193.59;4210482;28;20342;-60
2023/05/13 06:31:27;;;;;;;;;;;;;;;12.26;56.95;95196.41;4211902;28;19935;-61
2023/05/13 06:33:29;;;;;;;;;;;;;;;12.39;57.97;95196.84;4217671;28;19920;-63
2023/05/13 06:35:30;;;;;;;;;;;;;;;12.41;57.13;95194.88;4224475;28;20316;-61
2023/05/13 06:37:32;;;;;;;;;;;;;;;12.51;56.82;95189.47;4208359;28;20257;-60
2023/05/13 06:39:33;;;;;;;;;;;;;;;12.58;57.86;95194.91;4223412;28;20327;-60
2023/05/13 06:41:35;;;;;;;;;;;;;;;12.47;56.36;95191.59;4216932;28;19920;-60
2023/05/13 06:43:37;;;;;;;;;;;;;;;12.47;56.36;95196.84;4226330;28;19920;-60
2023/05/13 06:45:39;;;;;;;;;;;;;;;12.54;56.22;95185.69;4160450;28;1562304;-60
2023/05/13 06:47:40;;;;;;;;;;;;;;;12.65;55.58;95188.88;4219443;28;19927;-62
2023/05/13 06:49:42;;;;;;;;;;;;;;;12.42;55.32;95185.19;4217031;28;20010;-60
2023/05/13 06:51:43;;;;;;;;;;;;;;;12.45;55.24;95190.94;4225284;28;20293;-60
2023/05/13 06:53:45;;;;;;;;;;;;;;;12.37;55.63;95193.53;4222083;28;19955;-61
2023/05/13 06:55:46;;;;;;;;;;;;;;;12.43;55.54;95192.06;4224341;28;19920;-61
2023/05/13 06:57:48;;;;;;;;;;;;;;;12.60;54.92;95193.78;4223798;28;19920;-62
2023/05/13 06:59:49;;;;;;;;;;;;;;;12.86;54.61;95198.13;4225434;28;20289;-61
2023/05/13 07:01:51;;;;;;;;;;;;;;;12.90;52.66;95194.19;4211298;28;20015;-64
2023/05/13 07:03:52;;;;;;;;;;;;;;;13.01;52.55;95198.31;4211076;28;19927;-62
2023/05/13 07:05:54;;;;;;;;;;;;;;;13.18;53.27;95201.81;4212560;28;19927;-62
2023/05/13 07:07:55;;;;;;;;;;;;;;;13.27;51.33;95196.41;4209879;28;19920;-60
2023/05/13 07:09:57;;;;;;;;;;;;;;;13.39;50.71;95196.91;4212331;28;19924;-61
2023/05/13 07:11:59;;;;;;;;;;;;;;;13.58;50.67;95202.84;4216622;28;19923;-59
2023/05/13 07:14:00;;;;;;;;;;;;;;;13.67;50.79;95207.13;4214138;28;19920;-60
2023/05/13 07:16:01;;;;;;;;;;;;;;;13.32;49.75;95211.72;4209629;28;19977;-61
2023/05/13 07:18:03;;;;;;;;;;;;;;;13.14;48.82;95214.44;4214608;28;20770;-62
2023/05/13 07:20:05;;;;;;;;;;;;;;;12.98;49.45;95217.88;4212078;28;19973;-62
2023/05/13 07:22:06;;;;;;;;;;;;;;;12.97;49.96;95223.28;4213731;28;19929;-61
2023/05/13 07:24:08;;;;;;;;;;;;;;;12.62;49.36;95222.53;4212134;28;20231;-62
2023/05/13 07:26:09;;;;;;;;;;;;;;;12.22;49.63;95229.25;4214376;28;20026;-63
2023/05/13 07:28:11;;;;;;;;;;;;;;;12.22;50.81;95224.81;4214235;28;19955;-61
2023/05/13 07:30:13;;;;;;;;;;;;;;;12.20;51.21;95224.16;4212854;28;19920;-61
2023/05/13 07:32:14;;;;;;;;;;;;;;;12.52;50.96;95224.44;4211693;28;19920;-60
2023/05/13 07:34:16;;;;;;;;;;;;;;;12.56;50.22;95223.16;4220414;28;20037;-60
2023/05/13 07:36:17;;;;;;;;;;;;;;;12.78;50.10;95216.53;4214997;28;20289;-62
2023/05/13 07:38:19;;;;;;;;;;;;;;;12.96;49.37;95217.22;4228273;28;20373;-61
2023/05/13 07:40:20;;;;;;;;;;;;;;;13.02;48.94;95208.69;4224253;28;19969;-60
2023/05/13 07:42:23;;;;;;;;;;;;;;;12.76;48.87;95221.13;4223429;28;19927;-59
2023/05/13 07:44:25;;;;;;;;;;;;;;;12.68;49.43;95214.84;4227121;28;20438;-60
2023/05/13 07:46:26;;;;;;;;;;;;;;;12.81;50.37;95217.00;4226458;28;19984;-61
2023/05/13 07:48:28;;;;;;;;;;;;;;;13.15;49.87;95213.47;4212988;28;19931;-59
2023/05/13 07:50:30;;;;;;;;;;;;;;;13.50;50.33;95212.38;4224473;28;20014;-60
2023/05/13 07:52:31;;;;;;;;;;;;;;;13.92;48.93;95221.91;4228022;28;20014;-61
2023/05/13 07:54:33;;;;;;;;;;;;;;;14.29;48.39;95223.16;4229604;28;19976;-61
2023/05/13 07:56:34;;;;;;;;;;;;;;;14.63;48.54;95224.72;4223023;28;19955;-62
2023/05/13 07:58:36;;;;;;;;;;;;;;;14.91;48.06;95213.72;4216203;28;19920;-63
2023/05/13 08:00:38;;;;;;;;;;;;;;;15.10;47.84;95218.53;4217807;28;19939;-64
2023/05/13 08:02:40;;;;;;;;;;;;;;;15.32;48.53;95208.19;4224613;28;20456;-63
2023/05/13 08:04:42;;;;;;;;;;;;;;;15.44;47.30;95217.31;4222457;28;20357;-62
2023/05/13 08:06:43;;;;;;;;;;;;;;;15.55;46.41;95209.00;4217173;28;19984;-62
2023/05/13 08:08:45;;;;;;;;;;;;;;;15.39;46.57;95203.00;4216077;28;20361;-60
2023/05/13 08:10:47;;;;;;;;;;;;;;;15.45;47.42;95208.41;4223483;28;20335;-61
2023/05/13 08:12:52;;;;;;;;;;;;;;;15.59;47.32;95200.72;4215368;28;19969;-61
2023/05/13 08:14:53;;;;;;;;;;;;;;;15.76;46.71;95196.97;4216269;28;19991;-62
2023/05/13 08:16:55;;;;;;;;;;;;;;;15.89;46.79;95202.44;4215334;28;19943;-61
2023/05/13 08:18:57;;;;;;;;;;;;;;;15.99;45.46;95194.28;4206122;28;19923;-62
2023/05/13 08:20:58;;;;;;;;;;;;;;;15.87;45.27;95190.41;4215590;28;19924;-63
2023/05/13 08:23:00;;;;;;;;;;;;;;;15.80;46.00;95192.16;4224697;28;20559;-62
2023/05/13 08:25:02;;;;;;;;;;;;;;;15.77;46.22;95195.97;4223571;28;19920;-60
2023/05/13 08:27:04;;;;;;;;;;;;;;;15.84;46.24;95194.25;4218291;28;19962;-62
2023/05/13 08:29:06;;;;;;;;;;;;;;;15.91;45.96;95195.16;4218714;28;20574;-62
2023/05/13 08:31:09;;;;;;;;;;;;;;;16.01;46.86;95189.63;4217205;28;19927;-62
2023/05/13 08:33:11;;;;;;;;;;;;;;;15.81;46.43;95188.50;4214123;28;19920;-63
2023/05/13 08:35:12;;;;;;;;;;;;;;;15.66;46.85;95189.28;4222815;28;20013;-61
2023/05/13 08:37:14;;;;;;;;;;;;;;;15.65;48.04;95186.78;4224676;28;19926;-62
2023/05/13 08:39:15;;;;;;;;;;;;;;;15.79;47.61;95190.50;4216931;28;19920;-61
2023/05/13 08:41:17;;;;;;;;;;;;;;;15.89;47.34;95189.25;4216763;28;20282;-60
2023/05/13 08:43:22;;;;;;;;;;;;;;;16.12;47.08;95183.09;4216850;28;19924;-64
2023/05/13 08:45:24;;;;;;;;;;;;;;;16.26;47.40;95182.28;4205978;28;19942;-62
2023/05/13 08:47:26;;;;;;;;;;;;;;;16.40;47.71;95177.97;4223681;28;19959;-63
2023/05/13 08:49:28;;;;;;;;;;;;;;;16.57;47.58;95170.66;4221677;28;19923;-61
2023/05/13 08:51:30;;;;;;;;;;;;;;;16.46;46.22;95179.06;4216092;28;19920;-60
2023/05/13 08:53:33;;;;;;;;;;;;;;;16.54;47.05;95166.56;4211913;28;20490;-60
2023/05/13 08:55:34;;;;;;;;;;;;;;;16.34;46.10;95166.28;4216993;28;19951;-61
2023/05/13 08:57:36;;;;;;;;;;;;;;;16.24;46.96;95171.06;4213348;28;22006;-62
2023/05/13 08:59:37;;;;;;;;;;;;;;;16.26;47.08;95168.22;4212822;28;20039;-61
2023/05/13 09:01:39;;;;;;;;;;;;;;;16.10;47.61;95162.13;4212237;28;19924;-64
2023/05/13 09:03:43;;;;;;;;;;;;;;;16.28;48.35;95161.78;4213235;28;19923;-61
2023/05/13 09:05:44;;;;;;;;;;;;;;;16.03;48.60;95153.28;4211792;28;19920;-63
2023/05/13 09:07:46;;;;;;;;;;;;;;;16.05;49.14;95150.47;4212912;28;19954;-61
2023/05/13 09:09:47;;;;;;;;;;;;;;;16.23;49.86;95152.72;4212625;28;19967;-62
2023/05/13 09:11:49;;;;;;;;;;;;;;;16.51;49.69;95151.06;4211870;28;20358;-62
2023/05/13 09:13:57;;;;;;;;;;;;;;;16.73;50.18;95144.00;4202812;28;19962;-62
2023/05/13 09:15:59;;;;;;;;;;;;;;;16.93;49.22;95146.09;4213970;28;20503;-62
2023/05/13 09:18:02;;;;;;;;;;;;;;;17.08;49.28;95152.16;4222423;28;19919;-62
2023/05/13 09:20:07;;;;;;;;;;;;;;;17.23;49.06;95149.44;4213912;28;20205;-61
2023/05/13 09:22:15;;;;;;;;;;;;;;;17.32;48.68;95147.50;4215520;28;20314;-60
2023/05/13 09:24:17;;;;;;;;;;;;;;;17.24;47.85;95148.44;4226301;28;20002;-60
2023/05/13 09:26:26;;;;;;;;;;;;;;;16.92;48.74;95157.66;4217374;28;19924;-62
2023/05/13 09:28:28;;;;;;;;;;;;;;;16.47;49.76;95155.06;4223077;28;19989;-61
2023/05/13 09:30:40;;;;;;;;;;;;;;;16.18;50.11;95146.16;4213706;28;20394;-62
2023/05/13 09:32:45;;;;;;;;;;;;;;;16.52;50.31;95150.06;4214193;28;19920;-61
2023/05/13 09:34:47;;;;;;;;;;;;;;;16.56;49.71;95148.69;4223595;28;19939;-61
2023/05/13 09:36:53;;;;;;;;;;;;;;;16.69;49.48;95140.09;4226482;28;20053;-62
2023/05/13 09:38:55;;;;;;;;;;;;;;;16.52;50.04;95133.34;4219175;28;19920;-60
2023/05/13 09:40:58;;;;;;;;;;;;;;;16.59;48.88;95143.03;4226774;28;20022;-61
2023/05/13 09:42:59;;;;;;;;;;;;;;;16.68;48.98;95135.81;4225796;28;20369;-60
2023/05/13 09:45:03;;;;;;;;;;;;;;;16.88;49.27;95132.59;4228492;28;20334;-61
2023/05/13 09:47:05;;;;;;;;;;;;;;;16.98;49.50;95136.56;4217056;28;19943;-61
2023/05/13 09:49:07;;;;;;;;;;;;;;;16.68;47.47;95127.06;4224366;28;19955;-61
2023/05/13 09:51:08;;;;;;;;;;;;;;;16.48;48.12;95124.19;4218604;28;19928;-61
2023/05/13 09:53:10;;;;;;;;;;;;;;;16.54;48.59;95129.53;4212355;28;20022;-61
2023/05/13 09:55:12;;;;;;;;;;;;;;;16.70;48.66;95128.50;4213899;28;20014;-62
2023/05/13 09:57:14;;;;;;;;;;;;;;;16.83;48.85;95129.69;4213693;28;20414;-61
2023/05/13 09:59:16;;;;;;;;;;;;;;;16.80;48.18;95128.25;4212886;28;20065;-62
2023/05/13 10:01:18;;;;;;;;;;;;;;;16.64;48.57;95131.88;4212368;28;19920;-64
2023/05/13 10:03:20;;;;;;;;;;;;;;;16.67;48.42;95131.53;4213315;28;19928;-61
2023/05/13 10:05:21;;;;;;;;;;;;;;;16.92;48.61;95120.63;4214886;28;19986;-59
2023/05/13 10:07:24;;;;;;;;;;;;;;;17.25;48.40;95126.25;4210854;28;19963;-61
2023/05/13 10:09:26;;;;;;;;;;;;;;;17.52;47.83;95127.28;4212781;28;19920;-59
2023/05/13 10:11:28;;;;;;;;;;;;;;;17.84;46.90;95121.66;4211290;28;19951;-60
2023/05/13 10:13:30;;;;;;;;;;;;;;;18.09;46.85;95125.47;4212286;28;20454;-61
2023/05/13 10:15:32;;;;;;;;;;;;;;;18.27;45.86;95126.81;4227177;28;19930;-61
2023/05/13 10:17:33;;;;;;;;;;;;;;;18.31;45.44;95125.41;4212629;28;19923;-61
2023/05/13 10:19:35;;;;;;;;;;;;;;;18.59;45.04;95134.09;4210600;28;19969;-62
2023/05/13 10:21:36;;;;;;;;;;;;;;;18.45;45.11;95132.38;4209288;28;19968;-62
2023/05/13 10:23:38;;;;;;;;;;;;;;;18.32;45.68;95121.72;4214559;28;19924;-63
2023/05/13 10:25:39;;;;;;;;;;;;;;;18.39;45.09;95123.41;4212145;28;19973;-59
2023/05/13 10:27:42;;;;;;;;;;;;;;;18.13;45.43;95120.59;4210693;28;19963;-61
2023/05/13 10:29:43;;;;;;;;;;;;;;;17.86;46.13;95116.97;4209879;28;19920;-62
2023/05/13 10:31:45;;;;;;;;;;;;;;;17.95;46.40;95119.25;4210616;28;20308;-61
2023/05/13 10:33:46;;;;;;;;;;;;;;;18.09;46.48;95116.69;4216352;28;20305;-63
2023/05/13 10:36:08;;;;;;;;;;;;;;;18.01;47.47;95117.69;4217909;28;19924;-60